NCAR-RAP Real-Time Weather Data

Output produced by METARs form (06 May 2021  17:03 UTC)
found at http://weather.rap.ucar.edu/surface/
 
KOMK 061553Z AUTO 36009KT 10SM CLR 17/04 A2990 RMK AO2 SLP122 T01670039
KOMK 061453Z AUTO 01009KT 10SM CLR 14/03 A2992 RMK AO2 SLP131 T01440033 55009
KOMK 061353Z AUTO 36009KT 10SM CLR 14/03 A2992 RMK AO2 SLP130 T01390028
KOMK 061253Z AUTO 35007KT 10SM CLR 12/03 A2993 RMK AO2 SLP134 T01170028
KOMK 061153Z AUTO 36005KT 10SM CLR 11/02 A2995 RMK AO2 SLP140 T01110022 10139 20100 56017
KOMK 061053Z AUTO 00000KT 10SM CLR 11/03 A2997 RMK AO2 SLP146 T01060028
KOMK 060953Z AUTO 00000KT 10SM CLR 11/03 A2998 RMK AO2 SLP151 T01110028
KOMK 060853Z AUTO 36004KT 10SM CLR 12/02 A3000 RMK AO2 SLP158 T01170022 58009
KOMK 060753Z AUTO 31003KT 10SM CLR 11/02 A3002 RMK AO2 SLP165 T01110022 402280078
KOMK 060653Z AUTO 29008KT 10SM CLR 13/02 A3003 RMK AO2 SLP166 T01330017
KOMK 060553Z AUTO 30006KT 10SM CLR 13/03 A3003 RMK AO2 SLP168 T01330028 10222 20133 50000
KOMK 060453Z AUTO 30008KT 10SM CLR 15/03 A3003 RMK AO2 SLP170 T01500033